Time;durP1;ratioP1;P1;durP2;ratioP2;P2;SDS_P1;SDS_P2;PMS_P1;PMS_P2;Temp;Humidity;BMP_temperature;BMP_pressure;BME280_temperature;BME280_humidity;BME280_pressure;Samples;Min_cycle;Max_cycle;Signal;HPM_P1;HPM_P2
2021/07/05 00:00:58;;;;;;;7.35;4.50;;;21.80;79.00;;;;;;5115240;28;20098;-80
2021/07/05 00:03:23;;;;;;;6.53;4.22;;;21.80;79.20;;;;;;5111876;28;20036;-79
2021/07/05 00:05:52;;;;;;;5.88;4.32;;;21.80;79.60;;;;;;5113043;28;20028;-79
2021/07/05 00:08:17;;;;;;;14.77;4.45;;;21.80;79.50;;;;;;5133901;27;20027;-79
2021/07/05 00:10:43;;;;;;;10.63;5.10;;;21.70;79.30;;;;;;5118344;27;20028;-79
2021/07/05 00:13:09;;;;;;;8.73;4.50;;;21.70;79.20;;;;;;5122391;27;20031;-79
2021/07/05 00:15:35;;;;;;;11.27;4.82;;;21.70;79.60;;;;;;5124394;27;20016;-79
2021/07/05 00:18:05;;;;;;;5.82;4.40;;;21.70;79.90;;;;;;5127177;27;20076;-79
2021/07/05 00:20:33;;;;;;;5.75;4.38;;;21.70;80.10;;;;;;5127940;27;20464;-79
2021/07/05 00:23:02;;;;;;;6.90;4.85;;;21.70;80.40;;;;;;5118468;27;20051;-79
2021/07/05 00:25:28;;;;;;;7.63;4.90;;;21.70;80.60;;;;;;5115402;27;20051;-78
2021/07/05 00:27:54;;;;;;;7.88;4.65;;;21.80;80.30;;;;;;5117795;27;20065;-79
2021/07/05 00:30:21;;;;;;;9.50;4.57;;;21.80;80.60;;;;;;5106845;27;20023;-79
2021/07/05 00:32:48;;;;;;;7.35;4.75;;;21.80;80.60;;;;;;5110876;27;20027;-79
2021/07/05 00:35:18;;;;;;;7.90;4.75;;;21.70;80.90;;;;;;5124396;27;20020;-79
2021/07/05 00:37:44;;;;;;;8.90;5.18;;;21.70;80.50;;;;;;5120247;27;20034;-79
2021/07/05 00:40:15;;;;;;;7.00;4.65;;;21.70;80.20;;;;;;5130709;27;20092;-79
2021/07/05 00:42:44;;;;;;;11.23;5.28;;;21.70;79.90;;;;;;5139496;28;20023;-79
2021/07/05 00:45:11;;;;;;;8.13;4.40;;;21.70;79.70;;;;;;5122608;28;20043;-79
2021/07/05 00:47:37;;;;;;;8.73;4.32;;;21.70;79.60;;;;;;5116619;28;20024;-79
2021/07/05 00:50:04;;;;;;;10.10;5.28;;;21.70;79.30;;;;;;5102390;27;20040;-79
2021/07/05 00:52:30;;;;;;;10.07;4.82;;;21.60;79.50;;;;;;5136840;27;20023;-79
2021/07/05 00:54:56;;;;;;;8.48;5.10;;;21.60;79.40;;;;;;5122340;27;20576;-79
2021/07/05 00:57:25;;;;;;;6.88;4.47;;;21.60;79.40;;;;;;5113373;28;20078;-79
2021/07/05 00:59:56;;;;;;;6.47;4.63;;;21.60;79.10;;;;;;5118632;27;20368;-79
2021/07/05 01:02:23;;;;;;;11.95;6.38;;;21.60;79.00;;;;;;5128397;27;20127;-79
2021/07/05 01:04:51;;;;;;;7.45;5.13;;;21.60;79.00;;;;;;5121434;27;20517;-79
2021/07/05 01:07:21;;;;;;;8.15;5.15;;;21.50;79.10;;;;;;5112688;28;20036;-79
2021/07/05 01:09:47;;;;;;;7.28;5.00;;;21.50;79.00;;;;;;5119930;27;20463;-80
2021/07/05 01:12:13;;;;;;;7.10;5.38;;;21.50;78.90;;;;;;5115143;27;20028;-80
2021/07/05 01:14:40;;;;;;;13.55;6.07;;;21.50;79.30;;;;;;5109637;27;20023;-80
2021/07/05 01:17:13;;;;;;;11.18;5.90;;;21.50;79.50;;;;;;5115337;28;20551;-80
2021/07/05 01:19:41;;;;;;;10.98;5.57;;;21.50;80.10;;;;;;5115232;28;20547;-80
2021/07/05 01:22:09;;;;;;;9.00;5.05;;;21.50;80.20;;;;;;5122787;28;20023;-80
2021/07/05 01:24:35;;;;;;;11.23;5.75;;;21.40;79.80;;;;;;5114389;28;20035;-80
2021/07/05 01:27:01;;;;;;;9.45;6.00;;;21.50;80.10;;;;;;5112959;28;20035;-79
2021/07/05 01:29:27;;;;;;;8.02;5.38;;;21.50;80.30;;;;;;5114119;28;20059;-79
2021/07/05 01:31:55;;;;;;;7.82;5.20;;;21.50;80.30;;;;;;5113605;28;20035;-80
2021/07/05 01:34:21;;;;;;;8.63;5.75;;;21.40;80.20;;;;;;5101873;28;20032;-80
2021/07/05 01:36:47;;;;;;;10.55;5.25;;;21.40;80.10;;;;;;5110078;28;20050;-80
2021/07/05 01:39:13;;;;;;;7.30;5.30;;;21.40;79.90;;;;;;5109831;28;20482;-79
2021/07/05 01:41:39;;;;;;;10.05;5.30;;;21.40;79.90;;;;;;5121801;28;20027;-80
2021/07/05 01:44:04;;;;;;;9.20;5.18;;;21.40;79.80;;;;;;5123619;28;20044;-80
2021/07/05 01:46:30;;;;;;;7.50;5.00;;;21.40;79.50;;;;;;5110161;28;20315;-80
2021/07/05 01:48:56;;;;;;;9.07;5.28;;;21.40;79.30;;;;;;5121352;28;20076;-79
2021/07/05 01:51:21;;;;;;;10.27;6.20;;;21.40;79.60;;;;;;5124233;28;20027;-79
2021/07/05 01:53:47;;;;;;;8.35;5.88;;;21.40;79.90;;;;;;5127327;28;20034;-80
2021/07/05 01:56:13;;;;;;;20.92;6.18;;;21.40;80.10;;;;;;5115366;28;20032;-76
2021/07/05 01:58:39;;;;;;;14.45;6.53;;;21.40;80.20;;;;;;5113815;28;20645;-81
2021/07/05 02:01:05;;;;;;;8.48;5.85;;;21.30;80.40;;;;;;5116717;28;20108;-77
2021/07/05 02:03:31;;;;;;;10.10;5.72;;;21.30;81.00;;;;;;5108684;28;20046;-81
2021/07/05 02:06:00;;;;;;;13.60;6.00;;;21.30;81.00;;;;;;5115693;28;20110;-76
2021/07/05 02:08:26;;;;;;;11.60;5.97;;;21.40;81.10;;;;;;5111148;28;20036;-78
2021/07/05 02:10:52;;;;;;;14.02;5.63;;;21.30;80.90;;;;;;5112753;28;20038;-78
2021/07/05 02:13:22;;;;;;;11.73;6.25;;;21.40;80.80;;;;;;5115525;28;20024;-77
2021/07/05 02:15:50;;;;;;;13.27;5.78;;;21.30;81.00;;;;;;5074003;28;1040859;-74
2021/07/05 02:18:20;;;;;;;8.25;5.80;;;21.40;81.10;;;;;;5115772;27;20064;-77
2021/07/05 02:20:46;;;;;;;9.95;6.10;;;21.30;80.80;;;;;;5114470;27;20072;-78
2021/07/05 02:23:14;;;;;;;15.82;6.25;;;21.40;81.00;;;;;;5115260;27;20043;-71
2021/07/05 02:25:41;;;;;;;15.05;6.70;;;21.40;81.30;;;;;;5118444;27;20106;-79
2021/07/05 02:28:16;;;;;;;11.80;6.65;;;21.30;81.10;;;;;;5118351;27;20023;-79
2021/07/05 02:30:47;;;;;;;12.60;5.65;;;21.30;81.30;;;;;;5116756;27;20084;-79
2021/07/05 02:33:22;;;;;;;12.20;5.80;;;21.30;81.20;;;;;;5118202;27;20513;-78
2021/07/05 02:35:48;;;;;;;7.43;5.10;;;21.30;81.00;;;;;;5123046;27;20445;-79
2021/07/05 02:38:21;;;;;;;11.27;5.95;;;21.30;80.90;;;;;;5120491;27;20043;-80
2021/07/05 02:40:49;;;;;;;8.63;5.75;;;21.30;81.10;;;;;;5130067;27;20023;-79
2021/07/05 02:43:16;;;;;;;10.63;6.38;;;21.30;81.00;;;;;;5123405;27;20036;-79
2021/07/05 02:45:44;;;;;;;10.32;6.18;;;21.30;81.30;;;;;;5113255;28;20059;-79
2021/07/05 02:48:12;;;;;;;12.70;6.30;;;21.30;81.10;;;;;;5113159;27;20027;-79
2021/07/05 02:50:39;;;;;;;7.82;5.80;;;21.30;81.50;;;;;;5119960;27;20023;-79
2021/07/05 02:53:09;;;;;;;10.27;6.00;;;21.20;82.10;;;;;;5121799;27;20536;-79
2021/07/05 02:55:36;;;;;;;9.75;6.63;;;21.20;81.60;;;;;;5117246;27;20024;-79
2021/07/05 02:58:04;;;;;;;11.80;6.03;;;21.30;82.00;;;;;;5118916;27;20088;-79
2021/07/05 03:00:33;;;;;;;13.75;5.07;;;21.30;82.10;;;;;;5121368;27;20059;-79
2021/07/05 03:02:59;;;;;;;10.70;5.60;;;21.20;81.40;;;;;;5124158;27;20027;-79
2021/07/05 03:05:27;;;;;;;9.85;6.28;;;21.20;81.00;;;;;;5121137;27;20128;-80
2021/07/05 03:07:53;;;;;;;10.68;5.80;;;21.30;81.30;;;;;;5121063;27;20436;-79
2021/07/05 03:10:22;;;;;;;13.70;6.72;;;21.20;81.10;;;;;;5118854;27;20015;-79
2021/07/05 03:12:47;;;;;;;10.88;6.15;;;21.20;81.90;;;;;;5122434;27;20030;-79
2021/07/05 03:15:15;;;;;;;10.65;6.18;;;21.20;82.30;;;;;;5123729;27;20023;-80
2021/07/05 03:17:50;;;;;;;11.57;6.03;;;21.20;82.00;;;;;;5111423;28;20043;-80
2021/07/05 03:20:18;;;;;;;13.93;6.65;;;21.20;82.00;;;;;;5121102;27;20027;-80
2021/07/05 03:22:46;;;;;;;8.45;5.80;;;21.20;82.10;;;;;;5112710;28;20056;-79
2021/07/05 03:25:14;;;;;;;11.45;6.40;;;21.20;82.30;;;;;;5111890;28;20032;-79
2021/07/05 03:27:40;;;;;;;9.95;6.85;;;21.20;82.20;;;;;;5116067;27;20023;-79
2021/07/05 03:30:08;;;;;;;9.05;6.20;;;21.10;82.60;;;;;;5113091;28;20070;-79
2021/07/05 03:32:37;;;;;;;10.00;6.35;;;21.20;83.00;;;;;;5112292;28;20026;-79
2021/07/05 03:35:05;;;;;;;12.00;7.00;;;21.10;82.90;;;;;;5120777;27;20029;-79
2021/07/05 03:37:31;;;;;;;12.82;6.53;;;21.20;82.90;;;;;;5122255;27;20073;-79
2021/07/05 03:39:57;;;;;;;10.23;6.32;;;21.20;82.70;;;;;;5111422;27;20469;-79
2021/07/05 03:42:23;;;;;;;9.63;6.05;;;21.20;82.80;;;;;;5125299;27;20058;-79
2021/07/05 03:44:49;;;;;;;10.10;6.18;;;21.10;82.70;;;;;;5118916;27;20471;-79
2021/07/05 03:47:14;;;;;;;9.60;6.38;;;21.20;82.70;;;;;;5114008;28;20114;-79
2021/07/05 03:49:40;;;;;;;10.48;5.85;;;21.20;82.30;;;;;;5112762;28;20027;-79
2021/07/05 03:52:06;;;;;;;10.80;6.00;;;21.10;81.90;;;;;;5112753;28;20195;-79
2021/07/05 03:54:32;;;;;;;12.30;5.63;;;21.10;81.70;;;;;;5112052;28;20031;-79
2021/07/05 03:56:58;;;;;;;10.95;5.40;;;21.00;81.60;;;;;;5134281;27;20035;-79
2021/07/05 03:59:24;;;;;;;13.43;5.78;;;21.00;80.50;;;;;;5149791;27;20015;-79
2021/07/05 04:01:53;;;;;;;14.32;5.60;;;21.00;80.40;;;;;;5123995;28;20028;-79
2021/07/05 04:04:19;;;;;;;9.10;5.60;;;21.00;80.40;;;;;;5122622;28;20119;-80
2021/07/05 04:06:45;;;;;;;8.88;6.32;;;20.90;80.40;;;;;;5116486;28;20069;-79
2021/07/05 04:09:11;;;;;;;9.30;4.95;;;20.90;80.40;;;;;;5107402;28;20442;-79
2021/07/05 04:11:37;;;;;;;9.63;6.10;;;20.90;79.90;;;;;;5119909;28;20482;-80
2021/07/05 04:14:06;;;;;;;16.17;6.40;;;20.80;79.90;;;;;;5107498;28;20479;-80
2021/07/05 04:16:34;;;;;;;11.85;5.50;;;20.80;79.80;;;;;;5091608;28;20047;-80
2021/07/05 04:18:59;;;;;;;10.10;6.50;;;20.70;79.60;;;;;;5111757;28;20039;-80
2021/07/05 04:21:26;;;;;;;11.15;5.97;;;20.80;80.30;;;;;;5113650;28;20015;-80
2021/07/05 04:23:53;;;;;;;11.40;6.35;;;20.70;79.50;;;;;;5113075;28;20043;-80
2021/07/05 04:26:21;;;;;;;10.45;6.60;;;20.70;79.70;;;;;;5124576;28;20062;-79
2021/07/05 04:28:46;;;;;;;16.33;6.82;;;20.60;79.70;;;;;;5118428;28;20031;-80
2021/07/05 04:31:12;;;;;;;11.98;6.25;;;20.70;80.00;;;;;;5118859;28;20065;-79
2021/07/05 04:33:38;;;;;;;17.15;6.35;;;20.60;80.00;;;;;;5119362;28;20424;-80
2021/07/05 04:36:04;;;;;;;14.85;7.07;;;20.50;80.40;;;;;;5119424;28;20042;-79
2021/07/05 04:38:29;;;;;;;13.68;7.22;;;20.60;80.80;;;;;;5138839;28;20087;-79
2021/07/05 04:41:03;;;;;;;12.27;7.53;;;20.60;81.00;;;;;;5130890;28;20032;-79
2021/07/05 04:43:29;;;;;;;13.77;6.78;;;20.60;81.40;;;;;;5114696;28;20043;-79
2021/07/05 04:45:56;;;;;;;15.35;8.35;;;20.60;80.70;;;;;;5111702;28;20032;-79
2021/07/05 04:48:22;;;;;;;6.45;3.97;;;20.60;80.60;;;;;;5111924;28;20047;-79
2021/07/05 04:50:48;;;;;;;16.63;8.23;;;20.60;79.90;;;;;;5122795;27;20021;-79
2021/07/05 04:53:14;;;;;;;16.90;10.60;;;20.60;79.80;;;;;;5117138;27;20024;-79
2021/07/05 04:55:40;;;;;;;18.25;10.63;;;20.60;80.20;;;;;;5115456;28;20092;-79
2021/07/05 04:58:06;;;;;;;20.48;10.65;;;20.60;80.60;;;;;;5127030;27;20540;-79
2021/07/05 05:00:33;;;;;;;13.95;9.52;;;20.60;81.10;;;;;;5109660;27;20039;-79
2021/07/05 05:03:01;;;;;;;16.25;10.27;;;20.60;81.20;;;;;;5120994;27;20035;-79
2021/07/05 05:05:28;;;;;;;14.80;8.90;;;20.60;80.90;;;;;;5114258;28;20386;-79
2021/07/05 05:08:00;;;;;;;17.00;9.90;;;20.60;80.40;;;;;;5121978;27;20042;-79
2021/07/05 05:10:28;;;;;;;15.30;8.05;;;20.60;80.90;;;;;;5111108;28;20043;-79
2021/07/05 05:12:54;;;;;;;19.83;11.63;;;20.60;80.30;;;;;;5116215;27;20031;-78
2021/07/05 05:15:20;;;;;;;17.45;9.48;;;20.60;80.00;;;;;;5114544;28;20115;-79
2021/07/05 05:17:47;;;;;;;18.52;12.30;;;20.60;79.70;;;;;;5116688;27;20087;-70
2021/07/05 05:20:14;;;;;;;20.02;10.65;;;20.50;80.30;;;;;;5125504;27;20027;-70
2021/07/05 05:22:40;;;;;;;19.42;12.60;;;20.60;80.40;;;;;;5121318;27;20030;-69
2021/07/05 05:25:16;;;;;;;19.98;10.00;;;20.60;80.30;;;;;;5136118;27;20035;-69
2021/07/05 05:27:43;;;;;;;16.98;9.40;;;20.50;80.60;;;;;;5121853;27;20047;-71
2021/07/05 05:30:11;;;;;;;20.23;11.90;;;20.60;80.30;;;;;;5127449;27;20376;-71
2021/07/05 05:32:37;;;;;;;14.05;8.32;;;20.60;80.50;;;;;;5122480;27;20028;-70
2021/07/05 05:35:05;;;;;;;22.52;13.00;;;20.60;79.90;;;;;;5120591;27;20037;-69
2021/07/05 05:37:30;;;;;;;20.20;13.48;;;20.60;80.30;;;;;;5128159;27;20035;-77
2021/07/05 05:39:57;;;;;;;15.52;10.35;;;20.60;80.60;;;;;;5120400;27;20038;-78
2021/07/05 05:42:22;;;;;;;19.65;11.85;;;20.60;80.20;;;;;;5126404;27;20607;-76
2021/07/05 05:44:48;;;;;;;19.08;12.48;;;20.60;80.30;;;;;;5119047;27;20057;-77
2021/07/05 05:47:14;;;;;;;18.02;11.02;;;20.60;80.90;;;;;;5117251;27;20019;-76
2021/07/05 05:49:40;;;;;;;15.00;10.68;;;20.60;80.90;;;;;;5124538;27;20076;-77
2021/07/05 05:52:06;;;;;;;20.92;12.98;;;20.60;80.90;;;;;;5119202;27;20058;-81
2021/07/05 05:54:32;;;;;;;18.65;12.60;;;20.60;81.20;;;;;;5101904;27;20035;-79
2021/07/05 05:56:58;;;;;;;17.13;9.98;;;20.70;81.80;;;;;;5121758;27;20453;-78
2021/07/05 05:59:24;;;;;;;16.40;10.43;;;20.70;80.80;;;;;;5125640;27;20603;-71
2021/07/05 06:01:50;;;;;;;17.60;11.30;;;20.70;81.00;;;;;;5116936;27;20035;-69
2021/07/05 06:04:25;;;;;;;14.68;8.15;;;20.70;80.80;;;;;;5119897;27;20385;-69
2021/07/05 06:06:52;;;;;;;13.63;8.80;;;20.70;80.60;;;;;;5106569;28;20052;-69
2021/07/05 06:09:18;;;;;;;17.88;11.68;;;20.70;80.20;;;;;;5133165;27;20114;-69
2021/07/05 06:11:46;;;;;;;20.45;12.05;;;20.80;80.50;;;;;;5116128;27;20116;-70
2021/07/05 06:14:12;;;;;;;20.33;10.93;;;20.80;80.70;;;;;;5119996;27;20027;-70
2021/07/05 06:16:37;;;;;;;18.88;12.55;;;20.80;80.60;;;;;;5123523;27;20047;-69
2021/07/05 06:19:04;;;;;;;17.90;9.63;;;20.90;80.90;;;;;;5121500;27;20039;-70
2021/07/05 06:21:32;;;;;;;16.95;11.45;;;20.90;80.70;;;;;;5123630;27;20016;-69
2021/07/05 06:23:58;;;;;;;18.90;12.00;;;20.90;80.50;;;;;;5118715;27;20046;-77
2021/07/05 06:26:24;;;;;;;18.92;13.07;;;20.90;80.70;;;;;;5118818;27;20028;-77
2021/07/05 06:28:50;;;;;;;21.00;13.30;;;20.90;80.50;;;;;;5127581;27;20478;-77
2021/07/05 06:31:18;;;;;;;21.65;12.98;;;20.90;81.20;;;;;;5115210;27;20019;-77
2021/07/05 06:33:44;;;;;;;19.95;13.25;;;20.90;80.60;;;;;;5117038;27;20393;-77
2021/07/05 06:36:12;;;;;;;25.35;12.93;;;20.90;81.50;;;;;;5125629;27;20115;-78
2021/07/05 06:38:37;;;;;;;20.60;13.68;;;20.90;81.20;;;;;;5114364;27;20051;-77
2021/07/05 06:41:03;;;;;;;25.38;12.90;;;21.00;81.20;;;;;;5112535;27;20027;-77
2021/07/05 06:43:29;;;;;;;23.90;13.82;;;20.90;81.30;;;;;;5112288;27;20043;-77
2021/07/05 06:45:54;;;;;;;22.27;12.45;;;21.00;81.50;;;;;;5123581;27;20058;-77
2021/07/05 06:48:20;;;;;;;20.70;12.10;;;20.90;81.00;;;;;;5123588;27;20024;-77
2021/07/05 06:50:46;;;;;;;18.63;12.77;;;21.00;81.00;;;;;;5120090;27;20039;-77
2021/07/05 06:53:11;;;;;;;16.30;10.90;;;21.00;81.10;;;;;;5119818;27;20035;-77
2021/07/05 06:55:37;;;;;;;19.65;12.43;;;20.90;80.60;;;;;;5124546;27;20055;-71
2021/07/05 06:58:03;;;;;;;20.23;12.48;;;21.00;80.80;;;;;;5129344;27;20039;-70
2021/07/05 07:00:30;;;;;;;18.00;11.60;;;21.00;81.10;;;;;;5117010;27;20532;-77
2021/07/05 07:02:57;;;;;;;18.42;12.65;;;21.00;81.00;;;;;;5125302;27;20445;-77
2021/07/05 07:05:25;;;;;;;18.80;12.23;;;21.00;80.80;;;;;;5126011;27;20032;-77
2021/07/05 07:07:56;;;;;;;12.73;8.02;;;21.00;80.70;;;;;;5125370;27;20027;-80
2021/07/05 07:10:25;;;;;;;6.88;2.80;;;21.00;80.20;;;;;;5123057;27;20374;-82
2021/07/05 07:12:54;;;;;;;3.78;2.72;;;20.90;80.00;;;;;;5130806;27;20694;-82
2021/07/05 07:15:25;;;;;;;5.95;2.58;;;20.80;80.30;;;;;;5119553;27;20064;-82
2021/07/05 07:18:05;;;;;;;4.43;2.70;;;20.70;80.40;;;;;;5123152;27;20047;-82
2021/07/05 07:20:31;;;;;;;4.38;1.15;;;20.70;80.80;;;;;;5109675;27;20073;-82
2021/07/05 07:22:57;;;;;;;1.35;0.85;;;20.60;80.90;;;;;;5119257;27;20061;-81
2021/07/05 07:25:23;;;;;;;4.28;1.45;;;20.50;80.60;;;;;;5118606;27;20031;-80
2021/07/05 07:27:49;;;;;;;1.85;1.25;;;20.40;80.60;;;;;;5111885;27;20066;-80
2021/07/05 07:30:16;;;;;;;3.95;2.17;;;20.30;80.60;;;;;;5117468;27;20054;-77
2021/07/05 07:32:43;;;;;;;5.63;2.67;;;20.30;80.80;;;;;;5124043;27;20215;-77
2021/07/05 07:35:10;;;;;;;3.00;1.83;;;20.20;81.50;;;;;;5123789;27;20520;-77
2021/07/05 07:37:37;;;;;;;3.72;2.58;;;20.20;80.90;;;;;;5123658;27;20072;-78
2021/07/05 07:40:14;;;;;;;0.95;0.77;;;20.20;80.90;;;;;;5104260;28;20023;-77
2021/07/05 07:42:40;;;;;;;3.50;1.40;;;20.20;80.50;;;;;;5116403;27;20115;-78
2021/07/05 07:45:07;;;;;;;1.50;1.10;;;20.20;80.00;;;;;;5124169;27;20106;-78
2021/07/05 07:47:32;;;;;;;2.40;1.00;;;20.20;79.70;;;;;;5118383;27;20115;-77
2021/07/05 07:49:58;;;;;;;1.20;1.10;;;20.10;79.60;;;;;;5122316;27;20441;-77
2021/07/05 07:52:26;;;;;;;2.33;1.30;;;20.10;79.70;;;;;;5123782;28;20039;-77
2021/07/05 07:54:52;;;;;;;3.50;1.50;;;20.10;79.70;;;;;;5120129;28;20023;-77
2021/07/05 07:57:18;;;;;;;6.03;1.73;;;20.20;79.80;;;;;;5123945;28;20084;-78
2021/07/05 07:59:45;;;;;;;3.15;1.80;;;20.20;80.00;;;;;;5118449;28;20039;-78
2021/07/05 08:02:11;;;;;;;1.65;0.88;;;20.30;80.00;;;;;;5117581;28;20035;-77
2021/07/05 08:04:38;;;;;;;2.78;1.27;;;20.30;79.70;;;;;;5120083;28;20059;-77
2021/07/05 08:07:04;;;;;;;2.42;1.10;;;20.20;79.30;;;;;;5117067;28;20035;-76
2021/07/05 08:09:29;;;;;;;1.08;0.80;;;20.20;79.00;;;;;;5112949;28;20035;-76
2021/07/05 08:11:55;;;;;;;2.78;0.95;;;20.20;78.90;;;;;;5120703;28;20035;-77
2021/07/05 08:14:21;;;;;;;0.82;0.80;;;20.20;78.80;;;;;;5116416;28;20038;-74
2021/07/05 08:16:47;;;;;;;2.75;0.90;;;20.20;78.70;;;;;;5122767;28;20194;-76
2021/07/05 08:19:13;;;;;;;4.72;1.20;;;20.20;78.70;;;;;;5124038;28;20039;-74
2021/07/05 08:21:39;;;;;;;1.23;0.85;;;20.20;78.80;;;;;;5118274;28;20027;-72
2021/07/05 08:24:05;;;;;;;1.00;0.80;;;20.20;78.70;;;;;;5119805;28;20097;-76
2021/07/05 08:26:31;;;;;;;1.50;0.70;;;20.20;78.30;;;;;;5127664;27;20034;-78
2021/07/05 08:29:00;;;;;;;2.42;1.08;;;20.20;78.50;;;;;;5129252;27;20480;-77
2021/07/05 08:31:26;;;;;;;0.60;0.60;;;20.20;79.00;;;;;;5124083;27;20035;-75
2021/07/05 08:33:52;;;;;;;1.20;1.08;;;20.20;79.00;;;;;;5126527;27;20079;-76
2021/07/05 08:36:21;;;;;;;0.80;0.73;;;20.20;78.60;;;;;;5131321;27;20031;-76
2021/07/05 08:38:47;;;;;;;0.82;0.60;;;20.10;78.20;;;;;;5125972;27;20474;-76
2021/07/05 08:41:14;;;;;;;0.50;0.50;;;20.20;78.10;;;;;;5126421;27;20371;-78
2021/07/05 08:43:44;;;;;;;0.95;0.70;;;20.20;77.80;;;;;;5126562;27;20023;-77
2021/07/05 08:46:25;;;;;;;0.68;0.63;;;20.10;77.70;;;;;;5121500;27;20039;-78
2021/07/05 08:48:51;;;;;;;3.22;0.82;;;20.10;77.70;;;;;;5124607;27;20031;-76
2021/07/05 08:51:21;;;;;;;0.68;0.68;;;20.10;77.80;;;;;;5127153;27;20143;-76
2021/07/05 08:53:48;;;;;;;0.60;0.60;;;20.10;78.10;;;;;;5104983;28;20027;-82
2021/07/05 08:56:15;;;;;;;2.30;0.90;;;20.10;79.30;;;;;;5127499;27;20015;-76
2021/07/05 08:58:41;;;;;;;1.20;0.70;;;20.10;78.70;;;;;;5130146;27;20041;-77
2021/07/05 09:01:09;;;;;;;2.22;1.17;;;20.10;79.00;;;;;;5129254;27;20051;-77
2021/07/05 09:03:36;;;;;;;0.63;0.60;;;20.20;78.80;;;;;;5128798;27;20774;-79
2021/07/05 09:06:24;;;;;;;2.15;1.10;;;20.20;79.00;;;;;;5126743;27;20466;-78
2021/07/05 09:09:03;;;;;;;2.33;1.10;;;20.10;79.20;;;;;;5122290;27;20057;-79
2021/07/05 09:11:48;;;;;;;1.30;0.90;;;20.20;79.90;;;;;;5132904;27;20076;-77
2021/07/05 09:14:19;;;;;;;1.60;0.90;;;20.20;80.00;;;;;;5125532;27;20081;-79
2021/07/05 09:16:46;;;;;;;2.00;1.40;;;20.30;80.00;;;;;;5123913;27;20468;-77
2021/07/05 09:19:20;;;;;;;3.90;1.35;;;20.30;79.80;;;;;;5131511;27;20157;-77
2021/07/05 09:21:51;;;;;;;2.38;1.48;;;20.30;79.30;;;;;;5128946;27;20027;-78
2021/07/05 09:24:38;;;;;;;2.42;1.90;;;20.30;78.50;;;;;;5107727;27;20019;-79
2021/07/05 09:27:32;;;;;;;5.07;1.60;;;20.20;78.30;;;;;;5124303;27;20047;-77
2021/07/05 09:30:06;;;;;;;2.97;1.83;;;20.20;78.70;;;;;;5130012;27;20486;-78
2021/07/05 09:32:32;;;;;;;;;;;20.20;79.00;;;;;;5126172;27;20035;-78
2021/07/05 09:34:58;;;;;;;4.57;2.05;;;20.20;78.50;;;;;;5123758;27;19919;-78
2021/07/05 09:37:32;;;;;;;3.17;2.15;;;20.20;79.20;;;;;;5127098;27;20084;-78
2021/07/05 09:40:02;;;;;;;2.88;1.30;;;20.10;80.40;;;;;;5129699;27;20505;-78
2021/07/05 09:42:31;;;;;;;6.63;2.53;;;20.20;79.80;;;;;;5127975;27;20107;-78
2021/07/05 09:44:59;;;;;;;1.67;0.93;;;20.20;80.30;;;;;;5117431;27;20024;-78
2021/07/05 09:47:25;;;;;;;4.40;2.35;;;20.20;80.10;;;;;;5123107;27;20035;-79
2021/07/05 09:49:52;;;;;;;7.88;2.20;;;20.20;80.70;;;;;;5126412;27;20023;-78
2021/07/05 09:52:24;;;;;;;2.85;1.65;;;20.20;80.70;;;;;;5128013;27;20015;-77
2021/07/05 09:54:53;;;;;;;6.38;2.72;;;20.30;80.70;;;;;;5130701;27;20380;-77
2021/07/05 09:57:25;;;;;;;4.53;2.40;;;20.20;81.70;;;;;;5121743;27;20519;-78
2021/07/05 10:00:12;;;;;;;5.30;2.08;;;20.20;81.00;;;;;;5121283;27;20468;-78
2021/07/05 10:03:03;;;;;;;4.93;2.53;;;20.30;81.00;;;;;;5127491;27;20517;-77
2021/07/05 10:05:34;;;;;;;5.82;2.38;;;20.20;81.10;;;;;;5122577;27;20050;-77
2021/07/05 10:08:23;;;;;;;6.25;2.58;;;20.20;81.30;;;;;;5128941;27;20496;-77
2021/07/05 10:11:02;;;;;;;9.75;4.05;;;20.20;81.30;;;;;;5126804;27;20050;-77
2021/07/05 10:13:28;;;;;;;4.53;2.90;;;20.30;81.70;;;;;;5125415;27;20019;-78
2021/07/05 10:16:03;;;;;;;7.88;3.28;;;20.30;81.70;;;;;;5128271;27;20027;-77
2021/07/05 10:18:28;;;;;;;1.60;1.40;;;20.30;82.00;;;;;;5124970;27;20123;-79
2021/07/05 10:20:54;;;;;;;6.18;2.67;;;20.30;81.90;;;;;;5124367;27;20480;-78
2021/07/05 10:23:20;;;;;;;4.68;2.47;;;20.30;81.80;;;;;;5128419;27;20574;-77
2021/07/05 10:25:48;;;;;;;6.22;2.80;;;20.40;81.90;;;;;;5130353;27;20054;-77
2021/07/05 10:28:16;;;;;;;15.90;4.70;;;20.40;82.40;;;;;;5125526;27;20023;-77
2021/07/05 10:30:44;;;;;;;6.90;3.50;;;20.50;82.20;;;;;;5122647;27;20027;-78
2021/07/05 10:33:10;;;;;;;6.32;3.60;;;20.50;82.00;;;;;;5125381;27;20023;-78
2021/07/05 10:35:41;;;;;;;10.60;3.75;;;20.50;82.00;;;;;;5123151;27;20038;-78
2021/07/05 10:38:24;;;;;;;10.13;5.35;;;20.60;82.30;;;;;;5128106;27;20039;-79
2021/07/05 10:40:53;;;;;;;6.57;2.83;;;20.60;81.90;;;;;;5117823;27;20027;-78
2021/07/05 10:43:43;;;;;;;8.93;3.67;;;20.60;81.80;;;;;;5119054;27;20023;-79
2021/07/05 10:46:09;;;;;;;9.65;4.03;;;20.70;81.80;;;;;;5121963;27;20061;-71
2021/07/05 10:48:41;;;;;;;7.43;3.15;;;20.70;81.90;;;;;;5123323;27;20055;-72
2021/07/05 10:51:08;;;;;;;9.05;3.17;;;20.70;81.40;;;;;;5125538;27;20036;-79
2021/07/05 10:53:46;;;;;;;12.90;4.60;;;20.80;81.20;;;;;;5118842;27;20372;-78
2021/07/05 10:56:43;;;;;;;6.25;3.30;;;20.80;81.20;;;;;;5123226;27;20027;-78
2021/07/05 10:59:29;;;;;;;3.20;1.80;;;20.90;81.00;;;;;;5120004;27;20041;-79
2021/07/05 11:01:55;;;;;;;17.98;4.47;;;21.00;80.90;;;;;;5121717;27;20055;-78
2021/07/05 11:04:31;;;;;;;4.28;2.28;;;21.00;81.10;;;;;;5119868;27;20067;-78
2021/07/05 11:07:10;;;;;;;7.28;4.30;;;21.00;80.90;;;;;;5120982;27;20020;-78
2021/07/05 11:09:56;;;;;;;7.82;3.30;;;21.10;80.50;;;;;;5115822;27;20034;-79
2021/07/05 11:12:33;;;;;;;7.65;3.75;;;21.10;80.60;;;;;;5117821;27;20525;-77
2021/07/05 11:15:02;;;;;;;1.80;1.67;;;21.20;80.90;;;;;;5116236;27;20051;-78
2021/07/05 11:17:29;;;;;;;7.55;3.97;;;21.30;80.80;;;;;;5113535;27;20067;-78
2021/07/05 11:20:16;;;;;;;7.93;3.42;;;21.30;80.80;;;;;;5117919;27;20099;-78
2021/07/05 11:22:53;;;;;;;13.90;3.92;;;21.30;80.50;;;;;;5122100;27;20118;-78
2021/07/05 11:25:19;;;;;;;10.73;3.70;;;21.50;80.00;;;;;;5119165;27;20288;-77
2021/07/05 11:27:59;;;;;;;14.95;4.82;;;21.50;79.80;;;;;;5119135;27;20340;-78
2021/07/05 11:30:41;;;;;;;8.70;3.97;;;21.60;79.30;;;;;;5119328;27;20062;-78
2021/07/05 11:33:06;;;;;;;5.00;3.50;;;21.60;79.10;;;;;;5122767;27;20128;-78
2021/07/05 11:35:37;;;;;;;15.30;4.10;;;21.70;78.90;;;;;;5121413;27;20106;-78
2021/07/05 11:38:05;;;;;;;8.05;3.55;;;21.70;79.00;;;;;;5119469;27;20035;-78
2021/07/05 11:40:52;;;;;;;8.07;3.60;;;21.70;78.80;;;;;;5120832;27;20095;-78
2021/07/05 11:43:48;;;;;;;5.70;3.35;;;21.80;78.80;;;;;;5124159;27;20055;-80
2021/07/05 11:46:29;;;;;;;7.57;3.05;;;21.80;78.50;;;;;;5128191;27;20023;-79
2021/07/05 11:49:14;;;;;;;12.77;3.88;;;21.80;78.30;;;;;;5134290;27;20087;-79
2021/07/05 11:51:49;;;;;;;7.47;3.95;;;21.80;77.70;;;;;;5141115;27;20126;-78
2021/07/05 11:54:34;;;;;;;10.52;4.10;;;21.80;78.10;;;;;;5122116;28;20478;-78
2021/07/05 11:57:02;;;;;;;11.52;4.05;;;21.90;78.20;;;;;;5122911;28;20047;-78
2021/07/05 11:59:31;;;;;;;9.80;3.40;;;21.90;78.20;;;;;;5121286;28;20035;-79
2021/07/05 12:02:03;;;;;;;3.20;2.13;;;22.00;78.40;;;;;;5129233;27;20063;-79
2021/07/05 12:04:33;;;;;;;5.18;2.17;;;22.00;78.40;;;;;;5122793;27;20023;-71
2021/07/05 12:07:00;;;;;;;7.88;1.90;;;22.00;78.10;;;;;;5123759;27;20415;-71
2021/07/05 12:09:33;;;;;;;10.18;3.75;;;22.00;78.00;;;;;;5126954;27;20035;-71
2021/07/05 12:12:16;;;;;;;5.55;2.50;;;22.10;77.60;;;;;;5127192;27;20043;-71
2021/07/05 12:14:46;;;;;;;;;;;22.10;77.80;;;;;;5123223;27;20478;-85
2021/07/05 12:17:13;;;;;;;10.82;2.90;;;22.10;78.00;;;;;;5125946;27;20006;-85
2021/07/05 12:19:42;;;;;;;3.22;2.53;;;22.10;77.70;;;;;;5121369;27;20487;-85
2021/07/05 12:22:10;;;;;;;8.50;3.70;;;22.10;77.30;;;;;;5127387;27;20435;-86
2021/07/05 12:24:41;;;;;;;3.05;1.90;;;22.20;76.90;;;;;;5129847;27;20054;-85
2021/07/05 12:27:09;;;;;;;6.10;3.00;;;22.20;77.70;;;;;;5119383;27;20025;-81
2021/07/05 12:29:46;;;;;;;6.40;2.55;;;22.20;78.00;;;;;;5117206;27;20082;-79
2021/07/05 12:32:28;;;;;;;10.82;4.60;;;22.20;77.40;;;;;;5126273;27;20031;-79
2021/07/05 12:35:00;;;;;;;17.83;6.15;;;22.30;77.60;;;;;;5116511;27;20024;-80
2021/07/05 12:37:47;;;;;;;10.20;4.55;;;22.20;77.90;;;;;;5118320;27;20555;-78
2021/07/05 12:40:24;;;;;;;13.15;5.80;;;22.30;78.10;;;;;;5122342;27;20028;-78
2021/07/05 12:42:57;;;;;;;12.18;5.82;;;22.30;77.80;;;;;;5122788;27;20106;-78
2021/07/05 12:45:26;;;;;;;9.02;5.72;;;22.30;78.30;;;;;;5124322;27;20046;-77
2021/07/05 12:48:07;;;;;;;14.15;5.90;;;22.40;78.50;;;;;;5120023;27;20321;-78
2021/07/05 12:50:57;;;;;;;10.98;5.78;;;22.30;78.50;;;;;;5117564;27;20035;-77